Time;durP1;ratioP1;P1;durP2;ratioP2;P2;SDS_P1;SDS_P2;PMS_P1;PMS_P2;Temp;Humidity;BMP_temperature;BMP_pressure;BME280_temperature;BME280_humidity;BME280_pressure;Samples;Min_cycle;Max_cycle;Signal;HPM_P1;HPM_P2
2022/12/19 00:01:18;;;;;;;3.43;3.13;;;1.40;99.90;;;;;;6219711;23;20205;-89
2022/12/19 00:03:46;;;;;;;6.57;4.37;;;1.40;99.90;;;;;;6219872;23;20189;-89
2022/12/19 00:06:13;;;;;;;7.23;5.47;;;1.40;99.90;;;;;;6220363;23;20224;-89
2022/12/19 00:08:44;;;;;;;3.47;3.20;;;1.40;99.90;;;;;;6195292;23;20154;-89
2022/12/19 00:11:11;;;;;;;11.27;4.53;;;1.50;99.90;;;;;;6194800;23;20193;-89
2022/12/19 00:13:38;;;;;;;3.13;2.83;;;1.50;99.90;;;;;;6194711;23;20201;-89
2022/12/19 00:16:07;;;;;;;8.97;4.13;;;1.40;99.90;;;;;;6246115;23;20197;-88
2022/12/19 00:18:33;;;;;;;3.30;3.03;;;1.40;99.90;;;;;;6220027;23;20207;-88
2022/12/19 00:21:01;;;;;;;12.70;3.90;;;1.40;99.90;;;;;;6219270;23;20229;-89
2022/12/19 00:23:29;;;;;;;5.90;5.33;;;1.40;99.90;;;;;;6195612;23;20180;-89
2022/12/19 00:26:04;;;;;;;0.80;0.80;;;1.50;99.90;;;;;;6219673;23;20193;-89
2022/12/19 00:28:30;;;;;;;3.87;2.53;;;1.50;99.90;;;;;;6196831;23;20235;-88
2022/12/19 00:30:59;;;;;;;2.30;2.20;;;1.50;99.90;;;;;;6194088;23;20319;-88
2022/12/19 00:33:25;;;;;;;7.07;3.87;;;1.60;99.90;;;;;;6246400;23;20612;-88
2022/12/19 00:36:05;;;;;;;3.17;2.87;;;1.60;99.90;;;;;;6220772;23;20169;-88
2022/12/19 00:38:31;;;;;;;2.97;2.87;;;1.60;99.90;;;;;;6246770;23;20177;-88
2022/12/19 00:41:11;;;;;;;2.40;2.30;;;1.70;99.90;;;;;;6195145;23;20216;-88
2022/12/19 00:43:38;;;;;;;4.00;3.60;;;1.70;99.90;;;;;;6219692;23;20193;-88
2022/12/19 00:46:08;;;;;;;3.37;3.07;;;1.80;99.90;;;;;;6220645;23;20193;-88
2022/12/19 00:48:35;;;;;;;3.00;2.87;;;1.80;99.90;;;;;;6222151;23;20223;-88
2022/12/19 00:51:03;;;;;;;3.97;2.87;;;1.80;99.90;;;;;;6196432;23;20216;-88
2022/12/19 00:53:29;;;;;;;4.73;4.33;;;1.80;99.90;;;;;;6222262;23;20200;-88
2022/12/19 00:55:55;;;;;;;3.03;2.87;;;1.90;99.90;;;;;;6221172;23;20193;-88
2022/12/19 00:58:22;;;;;;;2.97;2.33;;;1.90;99.90;;;;;;6196729;23;20193;-89
2022/12/19 01:00:48;;;;;;;4.80;4.07;;;1.90;99.90;;;;;;6196337;23;20197;-89
2022/12/19 01:03:13;;;;;;;8.50;4.97;;;1.90;99.90;;;;;;6196466;23;20199;-89
2022/12/19 01:05:39;;;;;;;3.53;3.23;;;1.90;99.90;;;;;;6249435;23;20165;-88
2022/12/19 01:08:05;;;;;;;1.27;1.17;;;1.90;99.90;;;;;;6171616;23;20193;-89
2022/12/19 01:10:30;;;;;;;4.23;3.63;;;2.00;99.90;;;;;;6170346;23;20272;-88
2022/12/19 01:12:56;;;;;;;1.67;1.63;;;2.00;99.90;;;;;;6171362;23;20228;-89
2022/12/19 01:15:22;;;;;;;2.40;2.20;;;1.90;99.90;;;;;;6196715;23;20193;-89
2022/12/19 01:17:48;;;;;;;2.83;2.30;;;2.00;99.90;;;;;;6172232;23;20176;-88
2022/12/19 01:20:16;;;;;;;13.23;2.70;;;2.00;99.90;;;;;;6190848;23;20289;-88
2022/12/19 01:22:43;;;;;;;4.97;3.70;;;2.00;99.90;;;;;;6216489;23;20194;-88
2022/12/19 01:25:09;;;;;;;5.17;2.60;;;2.00;99.90;;;;;;6191869;23;20208;-89
2022/12/19 01:27:34;;;;;;;5.53;4.73;;;2.00;99.90;;;;;;6191601;23;20518;-88
2022/12/19 01:30:00;;;;;;;5.67;3.50;;;2.10;99.90;;;;;;6190537;23;20169;-88
2022/12/19 01:32:26;;;;;;;11.13;4.67;;;2.10;99.90;;;;;;6217025;23;20173;-89
2022/12/19 01:34:52;;;;;;;3.93;3.30;;;2.00;99.90;;;;;;6191339;23;20197;-88
2022/12/19 01:37:19;;;;;;;1.87;1.77;;;2.10;99.90;;;;;;6167221;23;20646;-89
2022/12/19 01:39:45;;;;;;;3.20;3.00;;;2.10;99.90;;;;;;6191488;23;20208;-88
2022/12/19 01:42:19;;;;;;;4.57;3.97;;;2.10;99.90;;;;;;6167440;23;20154;-88
2022/12/19 01:45:14;;;;;;;4.10;3.80;;;2.20;99.90;;;;;;6192827;23;20142;-88
2022/12/19 01:47:59;;;;;;;6.13;5.00;;;2.10;99.90;;;;;;6190912;23;20248;-89
2022/12/19 01:50:44;;;;;;;3.37;3.10;;;2.20;99.90;;;;;;6216411;23;20186;-88
2022/12/19 01:53:12;;;;;;;5.67;3.97;;;2.20;99.90;;;;;;6215912;23;20201;-88
2022/12/19 01:55:40;;;;;;;2.00;1.80;;;2.20;99.90;;;;;;6215684;23;20198;-89
2022/12/19 01:58:07;;;;;;;2.47;2.37;;;2.20;99.90;;;;;;6215352;23;20198;-88
2022/12/19 02:00:33;;;;;;;4.60;2.57;;;2.30;99.90;;;;;;6165928;23;20279;-89
2022/12/19 02:03:14;;;;;;;3.93;2.77;;;2.30;99.90;;;;;;6190934;23;20165;-88
2022/12/19 02:05:40;;;;;;;8.73;5.13;;;2.30;99.90;;;;;;6216566;23;20464;-89
2022/12/19 02:08:06;;;;;;;5.57;4.30;;;2.30;99.90;;;;;;6190782;23;20225;-88
2022/12/19 02:10:32;;;;;;;3.60;3.30;;;2.30;99.90;;;;;;6190697;23;20194;-88
2022/12/19 02:12:58;;;;;;;6.00;5.53;;;2.30;99.90;;;;;;6190862;23;20194;-89
2022/12/19 02:15:28;;;;;;;4.57;4.17;;;2.30;99.90;;;;;;6166568;23;20194;-89
2022/12/19 02:18:16;;;;;;;6.53;5.00;;;2.40;99.90;;;;;;6216757;23;20193;-88
2022/12/19 02:21:13;;;;;;;7.93;7.10;;;2.40;99.90;;;;;;6216094;23;20603;-88
2022/12/19 02:24:00;;;;;;;13.67;8.50;;;2.50;99.90;;;;;;6216255;23;20177;-88
2022/12/19 02:27:13;;;;;;;1.23;1.17;;;2.50;99.90;;;;;;6215939;23;20233;-89
2022/12/19 02:30:06;;;;;;;5.63;3.10;;;2.40;99.90;;;;;;6216069;23;20197;-89
2022/12/19 02:32:46;;;;;;;4.60;4.20;;;2.50;99.90;;;;;;6215930;23;20176;-89
2022/12/19 02:35:56;;;;;;;7.10;5.43;;;2.50;99.90;;;;;;6215586;23;20190;-89
2022/12/19 02:38:34;;;;;;;4.93;4.47;;;2.50;99.90;;;;;;6134817;23;20178;-89
2022/12/19 02:41:04;;;;;;;5.13;4.40;;;2.50;99.90;;;;;;6215237;23;20209;-89
2022/12/19 02:43:34;;;;;;;3.53;3.23;;;2.50;99.90;;;;;;6215503;23;20243;-89
2022/12/19 02:46:01;;;;;;;7.57;4.80;;;2.50;99.90;;;;;;6215392;23;20194;-89
2022/12/19 02:48:28;;;;;;;2.60;2.40;;;2.50;99.90;;;;;;6190576;23;20196;-89
2022/12/19 02:50:53;;;;;;;7.13;2.93;;;2.50;99.90;;;;;;6190746;23;20162;-90
2022/12/19 02:53:19;;;;;;;2.40;2.30;;;2.50;99.90;;;;;;6165897;23;20477;-90
2022/12/19 02:55:57;;;;;;;2.93;2.60;;;2.50;99.90;;;;;;6165658;23;20197;-90
2022/12/19 02:58:41;;;;;;;4.40;4.07;;;2.50;99.90;;;;;;6215242;23;20643;-90
2022/12/19 03:01:19;;;;;;;6.17;4.83;;;2.50;99.90;;;;;;6215481;23;20201;-90
2022/12/19 03:04:10;;;;;;;4.53;4.07;;;2.60;99.90;;;;;;6215551;23;20203;-90
2022/12/19 03:06:54;;;;;;;2.43;2.27;;;2.60;99.90;;;;;;6215281;23;20216;-90
2022/12/19 03:09:39;;;;;;;9.50;2.50;;;2.60;99.90;;;;;;6215016;23;20205;-90
2022/12/19 03:12:10;;;;;;;2.70;2.50;;;2.60;99.90;;;;;;6215608;23;20221;-90
2022/12/19 03:14:36;;;;;;;4.33;4.13;;;2.60;99.90;;;;;;6215919;23;20145;-90
2022/12/19 03:17:05;;;;;;;5.17;4.70;;;2.60;99.90;;;;;;6214633;23;20190;-90
2022/12/19 03:19:31;;;;;;;8.57;5.13;;;2.60;99.90;;;;;;6219905;23;20201;-90
2022/12/19 03:21:58;;;;;;;4.03;3.23;;;2.60;99.90;;;;;;6195629;23;20193;-90
2022/12/19 03:24:24;;;;;;;7.40;6.27;;;2.60;99.90;;;;;;6170586;23;20642;-90
2022/12/19 03:27:09;;;;;;;5.17;3.53;;;2.60;99.90;;;;;;6171198;23;20493;-90
2022/12/19 03:29:37;;;;;;;9.40;3.90;;;2.60;99.90;;;;;;6220403;23;20197;-90
2022/12/19 03:32:06;;;;;;;5.83;4.97;;;2.70;99.90;;;;;;6220073;23;20631;-90
2022/12/19 03:34:37;;;;;;;6.30;5.70;;;2.70;99.90;;;;;;6219987;23;20189;-90
2022/12/19 03:37:06;;;;;;;4.97;3.27;;;2.70;99.90;;;;;;6219635;23;20200;-90
2022/12/19 03:39:33;;;;;;;4.37;3.70;;;2.70;99.90;;;;;;6219918;23;20227;-90
2022/12/19 03:44:48;;;;;;;3.43;3.07;;;2.80;99.90;;;;;;6246903;23;20142;-90
2022/12/19 03:47:24;;;;;;;6.90;3.70;;;2.80;99.90;;;;;;6220180;23;20280;-90
2022/12/19 03:49:50;;;;;;;1.87;1.77;;;2.80;99.90;;;;;;6219859;23;20193;-90
2022/12/19 03:52:15;;;;;;;4.40;3.83;;;2.80;99.90;;;;;;6170093;23;20235;-90
2022/12/19 03:54:52;;;;;;;5.33;4.80;;;2.90;99.90;;;;;;6220111;23;20203;-90
2022/12/19 03:57:24;;;;;;;9.40;5.03;;;2.90;99.90;;;;;;6220225;23;20193;-90
2022/12/19 03:59:57;;;;;;;5.77;4.13;;;3.00;99.90;;;;;;6220638;23;20211;-90
2022/12/19 04:02:23;;;;;;;4.30;3.93;;;2.90;99.90;;;;;;6220420;23;20231;-90
2022/12/19 04:04:57;;;;;;;4.30;3.53;;;3.00;99.90;;;;;;6170278;23;20186;-90
2022/12/19 04:07:23;;;;;;;4.77;2.97;;;3.00;99.90;;;;;;6219995;23;20189;-90
2022/12/19 04:09:50;;;;;;;7.67;7.10;;;3.10;99.90;;;;;;6194664;23;20195;-90
2022/12/19 04:12:23;;;;;;;4.57;3.63;;;3.10;99.90;;;;;;6220130;23;20572;-89
2022/12/19 04:14:50;;;;;;;4.27;3.87;;;3.10;99.90;;;;;;6220481;23;20142;-90
2022/12/19 04:17:35;;;;;;;11.63;5.10;;;3.10;99.90;;;;;;6219948;23;20247;-90
2022/12/19 04:20:04;;;;;;;3.63;2.83;;;3.10;99.90;;;;;;6219074;23;20233;-90
2022/12/19 04:22:38;;;;;;;3.13;2.93;;;3.10;99.90;;;;;;6221249;23;20203;-90
2022/12/19 04:25:11;;;;;;;5.53;4.73;;;3.10;99.90;;;;;;6221967;23;20212;-90
2022/12/19 04:27:43;;;;;;;7.70;5.30;;;3.20;99.90;;;;;;6222097;23;20190;-90
2022/12/19 04:30:14;;;;;;;3.60;3.30;;;3.20;99.90;;;;;;6248485;23;20148;-90
2022/12/19 04:32:41;;;;;;;4.20;3.03;;;3.20;99.90;;;;;;6222303;23;20164;-90
2022/12/19 04:35:08;;;;;;;4.80;3.83;;;3.30;99.90;;;;;;6221676;23;20247;-90
2022/12/19 04:37:34;;;;;;;3.60;3.40;;;3.30;99.90;;;;;;6196934;23;20200;-90
2022/12/19 04:39:59;;;;;;;7.57;4.17;;;3.30;99.90;;;;;;6171724;23;20204;-90
2022/12/19 04:42:25;;;;;;;5.47;3.40;;;3.30;99.90;;;;;;6171993;23;20264;-90
2022/12/19 04:44:51;;;;;;;3.93;3.63;;;3.40;99.90;;;;;;6172610;23;20617;-90
2022/12/19 04:47:17;;;;;;;4.97;3.53;;;3.40;99.90;;;;;;6171885;23;20217;-90
2022/12/19 04:49:42;;;;;;;9.97;6.17;;;3.40;99.90;;;;;;6172016;23;20549;-90
2022/12/19 04:52:08;;;;;;;10.60;9.63;;;3.40;99.90;;;;;;6172092;23;20193;-90
2022/12/19 04:54:34;;;;;;;4.67;3.70;;;3.40;99.90;;;;;;6172117;23;20192;-90
2022/12/19 04:56:59;;;;;;;6.23;3.77;;;3.40;99.90;;;;;;6196820;23;20162;-90
2022/12/19 04:59:25;;;;;;;5.63;3.63;;;3.40;99.90;;;;;;6172531;23;20219;-89
2022/12/19 05:01:51;;;;;;;4.77;4.33;;;3.40;99.90;;;;;;6171557;23;20205;-89
2022/12/19 05:04:16;;;;;;;1.97;1.80;;;3.50;99.90;;;;;;6172008;23;20259;-90
2022/12/19 05:06:42;;;;;;;7.10;3.77;;;3.50;99.90;;;;;;6196528;23;20197;-90
2022/12/19 05:09:10;;;;;;;4.77;4.03;;;3.50;99.90;;;;;;6171994;23;20244;-89
2022/12/19 05:11:36;;;;;;;6.30;4.67;;;3.50;99.90;;;;;;6222193;23;20194;-90
2022/12/19 05:14:02;;;;;;;2.67;2.50;;;3.60;99.90;;;;;;6196810;23;20193;-90
2022/12/19 05:16:28;;;;;;;5.40;5.00;;;3.60;99.90;;;;;;6196827;23;20216;-89
2022/12/19 05:18:54;;;;;;;4.37;3.40;;;3.70;99.90;;;;;;6221229;23;20526;-90
2022/12/19 05:21:21;;;;;;;2.10;2.00;;;3.70;99.90;;;;;;6195997;23;20537;-91
2022/12/19 05:23:48;;;;;;;4.67;4.13;;;3.80;99.90;;;;;;6222274;23;20165;-91
2022/12/19 05:26:14;;;;;;;6.47;3.90;;;3.80;99.90;;;;;;6171905;23;20233;-89
2022/12/19 05:28:40;;;;;;;4.10;3.70;;;3.80;99.90;;;;;;6171860;23;20709;-90
2022/12/19 05:31:07;;;;;;;3.10;2.90;;;3.90;99.90;;;;;;6198744;23;20243;-90
2022/12/19 05:33:34;;;;;;;2.00;1.83;;;3.90;99.90;;;;;;6221097;23;20193;-89
2022/12/19 05:36:00;;;;;;;5.77;4.10;;;3.90;99.90;;;;;;6220567;23;20154;-88
2022/12/19 05:38:25;;;;;;;5.10;3.67;;;4.00;99.90;;;;;;6197178;23;20158;-89
2022/12/19 05:40:51;;;;;;;9.37;4.97;;;3.90;99.90;;;;;;6171097;23;20221;-88
2022/12/19 05:43:17;;;;;;;4.27;3.87;;;4.00;99.90;;;;;;6171186;23;20634;-89
2022/12/19 05:45:43;;;;;;;6.20;5.40;;;4.00;99.90;;;;;;6171106;23;20185;-91
2022/12/19 05:48:08;;;;;;;6.53;4.87;;;4.00;99.90;;;;;;6171177;23;20158;-90
2022/12/19 05:50:34;;;;;;;5.93;3.03;;;4.10;99.90;;;;;;6171679;23;20573;-89
2022/12/19 05:53:00;;;;;;;8.03;4.50;;;4.20;99.90;;;;;;6195555;23;20235;-89
2022/12/19 05:55:26;;;;;;;3.53;3.23;;;4.20;99.90;;;;;;6171149;23;20201;-89
2022/12/19 05:57:52;;;;;;;1.80;1.70;;;4.20;99.90;;;;;;6220818;23;20194;-89
2022/12/19 06:00:18;;;;;;;2.87;2.67;;;4.30;99.90;;;;;;6171012;23;20201;-89
2022/12/19 06:02:44;;;;;;;3.07;2.70;;;4.30;99.90;;;;;;6171661;23;20248;-88
2022/12/19 06:05:10;;;;;;;4.47;2.20;;;4.30;99.90;;;;;;6171232;23;20197;-89
2022/12/19 06:07:36;;;;;;;3.27;2.07;;;4.30;99.90;;;;;;6170961;23;20360;-89
2022/12/19 06:10:02;;;;;;;2.40;1.93;;;4.40;99.90;;;;;;6195873;23;20213;-89
2022/12/19 06:12:28;;;;;;;2.77;2.53;;;4.30;99.90;;;;;;6195812;23;20268;-90
2022/12/19 06:14:54;;;;;;;5.80;2.80;;;4.40;99.90;;;;;;6171324;23;20203;-90
2022/12/19 06:17:19;;;;;;;0.77;0.77;;;4.40;99.90;;;;;;6171663;23;20180;-91
2022/12/19 06:19:45;;;;;;;4.70;2.87;;;4.40;99.90;;;;;;6171439;23;20224;-93
2022/12/19 06:22:11;;;;;;;3.97;3.57;;;4.50;99.90;;;;;;6172043;23;20205;-90
2022/12/19 06:24:37;;;;;;;2.23;1.83;;;4.50;99.90;;;;;;6170791;23;20227;-91
2022/12/19 06:27:02;;;;;;;6.40;3.17;;;4.60;99.90;;;;;;6171662;23;20180;-91
2022/12/19 06:29:28;;;;;;;2.87;1.80;;;4.60;99.90;;;;;;6171824;23;20177;-91
2022/12/19 06:31:54;;;;;;;1.60;1.47;;;4.60;99.90;;;;;;6195430;23;20227;-91
2022/12/19 06:34:20;;;;;;;3.10;2.83;;;4.60;99.90;;;;;;6195780;23;20560;-91
2022/12/19 06:36:46;;;;;;;9.37;6.50;;;4.60;99.90;;;;;;6171197;23;20250;-91
2022/12/19 06:39:13;;;;;;;3.57;3.23;;;4.70;99.90;;;;;;6171618;23;21957;-91
2022/12/19 06:44:24;;;;;;;2.40;2.20;;;4.70;99.90;;;;;;6224673;23;20197;-91
2022/12/19 06:46:51;;;;;;;1.80;1.67;;;4.80;99.90;;;;;;6170447;23;20200;-90
2022/12/19 06:49:17;;;;;;;2.40;2.23;;;4.80;99.90;;;;;;6195273;23;20220;-92
2022/12/19 06:51:43;;;;;;;2.00;1.70;;;4.80;99.90;;;;;;6220766;23;20189;-91
2022/12/19 06:54:12;;;;;;;2.40;2.20;;;4.90;99.90;;;;;;6195123;23;20188;-91
2022/12/19 06:56:40;;;;;;;2.27;1.87;;;4.90;99.90;;;;;;6196314;23;20270;-91
2022/12/19 06:59:07;;;;;;;1.93;1.83;;;5.00;99.90;;;;;;6171012;23;20189;-90
2022/12/19 07:01:55;;;;;;;3.37;2.27;;;5.10;99.90;;;;;;6220367;23;20271;-91
2022/12/19 07:04:28;;;;;;;2.43;2.23;;;5.20;99.90;;;;;;6220243;23;20248;-90
2022/12/19 07:06:54;;;;;;;3.40;2.50;;;5.30;99.90;;;;;;6220335;23;20516;-91
2022/12/19 07:09:21;;;;;;;2.90;2.37;;;5.30;99.90;;;;;;6195516;23;20192;-91
2022/12/19 07:11:47;;;;;;;1.97;1.87;;;5.40;99.90;;;;;;6196399;23;20161;-91
2022/12/19 07:14:12;;;;;;;2.83;1.57;;;5.40;99.90;;;;;;6220209;23;20200;-91
2022/12/19 07:16:39;;;;;;;3.10;2.80;;;5.50;99.90;;;;;;6170237;23;20189;-91
2022/12/19 07:19:06;;;;;;;2.23;2.03;;;5.50;99.90;;;;;;6172834;23;20726;-94
2022/12/19 07:21:32;;;;;;;3.20;3.03;;;5.60;99.90;;;;;;6199382;23;20902;-92
2022/12/19 07:23:59;;;;;;;3.57;2.70;;;5.60;99.90;;;;;;6196235;23;20169;-92
2022/12/19 07:26:25;;;;;;;2.40;2.17;;;5.70;99.90;;;;;;6197327;23;20577;-91
2022/12/19 07:28:52;;;;;;;0.67;0.67;;;5.70;99.90;;;;;;6171218;23;20291;-93
2022/12/19 07:31:25;;;;;;;1.83;1.63;;;5.80;99.90;;;;;;6224920;23;20284;-94
2022/12/19 07:33:51;;;;;;;1.70;1.60;;;5.80;99.90;;;;;;6202001;23;20581;-94
2022/12/19 07:36:17;;;;;;;1.53;1.17;;;5.80;99.90;;;;;;6221553;23;20193;-92
2022/12/19 07:38:44;;;;;;;3.20;2.90;;;5.80;99.90;;;;;;6171116;23;20161;-91
2022/12/19 07:41:10;;;;;;;2.00;1.87;;;5.90;99.90;;;;;;6194931;23;20684;-90
2022/12/19 07:43:36;;;;;;;1.50;1.47;;;6.00;99.90;;;;;;6195840;23;20196;-92
2022/12/19 07:46:01;;;;;;;2.60;2.40;;;6.00;99.90;;;;;;6169994;23;20193;-90
2022/12/19 07:48:29;;;;;;;2.67;2.40;;;6.10;99.90;;;;;;6171103;23;20193;-91
2022/12/19 07:50:55;;;;;;;3.87;3.57;;;6.20;99.90;;;;;;6219484;23;20196;-90
2022/12/19 07:53:21;;;;;;;1.77;1.27;;;6.20;99.90;;;;;;6170993;23;20161;-91
2022/12/19 07:55:50;;;;;;;2.23;2.10;;;6.30;99.90;;;;;;6170333;23;20537;-91
2022/12/19 07:58:16;;;;;;;1.80;1.47;;;6.20;99.90;;;;;;6221813;23;20197;-91
2022/12/19 08:00:42;;;;;;;2.30;1.80;;;6.30;99.90;;;;;;6197164;23;20593;-90
2022/12/19 08:03:07;;;;;;;3.57;3.30;;;6.30;99.90;;;;;;6175394;23;20168;-91
2022/12/19 08:05:33;;;;;;;1.80;1.70;;;6.30;99.90;;;;;;6198379;23;20161;-92
2022/12/19 08:07:59;;;;;;;2.50;1.63;;;6.30;99.90;;;;;;6197567;23;20193;-92
2022/12/19 08:10:25;;;;;;;2.27;2.10;;;6.30;99.90;;;;;;6223198;23;20238;-92
2022/12/19 08:12:51;;;;;;;2.47;2.37;;;6.40;99.90;;;;;;6199177;23;20588;-92
2022/12/19 08:15:17;;;;;;;6.13;3.53;;;6.40;99.90;;;;;;6174265;23;20254;-92
2022/12/19 08:17:43;;;;;;;1.27;1.13;;;6.50;99.90;;;;;;6174089;23;20153;-91
2022/12/19 08:20:13;;;;;;;3.03;2.83;;;6.50;99.90;;;;;;6169466;23;20260;-92
2022/12/19 08:22:39;;;;;;;1.60;1.50;;;6.50;99.90;;;;;;6172928;23;20207;-91
2022/12/19 08:25:06;;;;;;;3.07;2.87;;;6.60;99.90;;;;;;6172148;23;20196;-90
2022/12/19 08:27:33;;;;;;;3.57;3.27;;;6.60;99.90;;;;;;6172296;23;20272;-91
2022/12/19 08:29:59;;;;;;;2.53;2.43;;;6.70;99.90;;;;;;6172365;23;20244;-92
2022/12/19 08:32:25;;;;;;;3.03;2.80;;;6.70;99.90;;;;;;6174321;23;20263;-92
2022/12/19 08:34:51;;;;;;;3.93;3.63;;;6.70;99.90;;;;;;6197185;23;20197;-91
2022/12/19 08:37:17;;;;;;;2.30;2.10;;;6.80;99.90;;;;;;6196584;23;20201;-90
2022/12/19 08:39:42;;;;;;;3.27;2.40;;;6.80;99.90;;;;;;6172426;23;20521;-90
2022/12/19 08:42:08;;;;;;;6.93;5.13;;;6.90;99.90;;;;;;6172054;23;20163;-91
2022/12/19 08:44:34;;;;;;;3.60;3.30;;;6.90;99.90;;;;;;6197072;23;20586;-91
2022/12/19 08:47:01;;;;;;;0.80;0.80;;;7.00;99.90;;;;;;6174366;23;20197;-94
2022/12/19 08:49:26;;;;;;;2.87;2.30;;;7.00;99.90;;;;;;6173601;23;20193;-92
2022/12/19 08:51:52;;;;;;;3.60;2.60;;;7.10;99.90;;;;;;6172563;23;20706;-91
2022/12/19 08:54:18;;;;;;;4.13;1.97;;;7.10;99.90;;;;;;6222027;23;20557;-91
2022/12/19 08:56:44;;;;;;;2.90;1.97;;;7.10;99.90;;;;;;6197294;23;20154;-92
2022/12/19 08:59:09;;;;;;;1.87;1.77;;;7.20;99.90;;;;;;6172281;23;20200;-91
2022/12/19 09:01:35;;;;;;;1.83;1.70;;;7.30;99.90;;;;;;6172059;23;20262;-91
2022/12/19 09:04:05;;;;;;;3.23;2.57;;;7.30;99.90;;;;;;6172317;23;20257;-94
2022/12/19 09:06:31;;;;;;;3.43;3.17;;;7.30;99.90;;;;;;6174600;23;20189;-91
2022/12/19 09:08:57;;;;;;;4.97;4.47;;;7.30;99.90;;;;;;6196820;23;20192;-91
2022/12/19 09:11:23;;;;;;;3.23;2.90;;;7.40;99.90;;;;;;6172592;23;20164;-91
2022/12/19 09:13:50;;;;;;;3.47;3.17;;;7.40;99.90;;;;;;6196660;23;20618;-92
2022/12/19 09:16:19;;;;;;;2.77;2.30;;;7.50;99.90;;;;;;6196789;23;20288;-91
2022/12/19 09:18:47;;;;;;;3.00;2.80;;;7.60;99.90;;;;;;6221633;23;20320;-91
2022/12/19 09:21:13;;;;;;;7.67;5.20;;;7.60;99.90;;;;;;6216464;23;20206;-91
2022/12/19 09:23:40;;;;;;;3.50;3.17;;;7.70;99.90;;;;;;6191570;23;20650;-92
2022/12/19 09:26:10;;;;;;;5.40;4.57;;;7.80;99.90;;;;;;6191300;23;20198;-91
2022/12/19 09:28:37;;;;;;;6.53;4.17;;;7.70;99.90;;;;;;6216287;23;20511;-92
2022/12/19 09:31:05;;;;;;;5.43;3.77;;;7.80;99.90;;;;;;6166995;23;20197;-91
2022/12/19 09:33:34;;;;;;;2.33;1.80;;;7.80;99.90;;;;;;6191569;23;20193;-91
2022/12/19 09:36:00;;;;;;;3.23;2.30;;;7.80;99.90;;;;;;6216554;23;20178;-92
2022/12/19 09:38:28;;;;;;;10.13;4.23;;;7.90;99.90;;;;;;6167017;23;20159;-92
2022/12/19 09:40:57;;;;;;;3.37;2.50;;;7.90;99.90;;;;;;6215774;23;20209;-92
2022/12/19 09:43:59;;;;;;;2.60;2.40;;;8.00;99.90;;;;;;6216130;23;20194;-92
2022/12/19 09:46:29;;;;;;;3.03;1.90;;;8.10;99.90;;;;;;6216207;23;20257;-91
2022/12/19 09:48:56;;;;;;;5.17;3.53;;;8.10;99.90;;;;;;6216304;23;20194;-92
2022/12/19 09:51:39;;;;;;;3.53;2.33;;;8.00;99.90;;;;;;6166924;23;20243;-92
2022/12/19 09:54:14;;;;;;;4.57;3.03;;;8.10;99.90;;;;;;6216536;23;20525;-92
2022/12/19 09:56:42;;;;;;;4.53;4.13;;;8.10;99.90;;;;;;6216951;23;20224;-92
2022/12/19 09:59:14;;;;;;;4.23;3.83;;;8.20;99.90;;;;;;6216237;23;20193;-92
2022/12/19 10:01:58;;;;;;;5.13;4.63;;;8.20;99.90;;;;;;6215911;23;20206;-92
2022/12/19 10:04:26;;;;;;;4.87;3.03;;;8.20;99.90;;;;;;6216039;23;20194;-92
2022/12/19 10:06:52;;;;;;;3.53;3.07;;;8.20;99.90;;;;;;6215808;23;20244;-92
2022/12/19 10:09:21;;;;;;;6.57;4.00;;;8.20;99.90;;;;;;6166273;23;20262;-92
2022/12/19 10:12:23;;;;;;;3.87;2.73;;;8.20;99.90;;;;;;6191839;23;20158;-92
2022/12/19 10:15:36;;;;;;;7.60;5.60;;;8.30;99.90;;;;;;6216616;23;20681;-93
2022/12/19 10:18:29;;;;;;;2.47;1.83;;;8.30;99.90;;;;;;6195926;23;20655;-92
2022/12/19 10:21:06;;;;;;;3.27;2.87;;;8.30;99.90;;;;;;6219521;23;20198;-92
2022/12/19 10:23:52;;;;;;;2.83;1.70;;;8.30;99.90;;;;;;6222048;23;20153;-92
2022/12/19 10:26:51;;;;;;;3.03;2.83;;;8.30;99.90;;;;;;6221567;23;20201;-92
2022/12/19 10:29:54;;;;;;;4.00;2.97;;;8.30;99.90;;;;;;6221324;23;20197;-92
2022/12/19 10:32:38;;;;;;;3.40;2.37;;;8.30;99.90;;;;;;6221397;23;20208;-93
2022/12/19 10:35:15;;;;;;;2.90;2.10;;;8.30;99.90;;;;;;6221295;23;20201;-93
2022/12/19 10:38:06;;;;;;;4.43;3.00;;;8.30;99.90;;;;;;6221281;23;20196;-92
2022/12/19 10:40:38;;;;;;;4.90;3.50;;;8.30;99.90;;;;;;6221444;23;20209;-93
2022/12/19 10:43:25;;;;;;;2.63;2.43;;;8.30;99.90;;;;;;6221181;23;20200;-93
2022/12/19 10:45:56;;;;;;;2.60;2.40;;;8.40;99.90;;;;;;6220970;23;20189;-92
2022/12/19 10:48:23;;;;;;;3.37;3.03;;;8.40;99.90;;;;;;6221558;23;20565;-92
2022/12/19 10:50:49;;;;;;;3.10;2.80;;;8.40;99.90;;;;;;6172096;23;20485;-92
2022/12/19 10:53:23;;;;;;;4.50;2.97;;;8.40;99.90;;;;;;6171174;23;20669;-92
2022/12/19 10:55:52;;;;;;;0.97;0.97;;;8.40;99.90;;;;;;6198134;23;20724;-92
2022/12/19 10:58:32;;;;;;;9.73;2.23;;;8.40;99.90;;;;;;6220738;23;20197;-92
2022/12/19 11:01:00;;;;;;;3.23;2.67;;;8.40;99.90;;;;;;6221153;23;20201;-91
2022/12/19 11:03:26;;;;;;;2.83;2.67;;;8.50;99.90;;;;;;6221304;23;20196;-92
2022/12/19 11:05:56;;;;;;;3.97;2.47;;;8.50;99.90;;;;;;6196003;23;20207;-92
2022/12/19 11:08:27;;;;;;;4.47;3.07;;;8.50;99.90;;;;;;6196555;23;20158;-93
2022/12/19 11:11:08;;;;;;;2.63;2.43;;;8.50;99.90;;;;;;6225968;23;20197;-92
2022/12/19 11:13:34;;;;;;;1.80;1.37;;;8.50;99.90;;;;;;6221748;23;20223;-92
2022/12/19 11:16:07;;;;;;;2.93;2.67;;;8.50;99.90;;;;;;6247449;23;20193;-91
2022/12/19 11:18:44;;;;;;;3.63;2.83;;;8.50;99.90;;;;;;6220833;23;20189;-92
2022/12/19 11:21:30;;;;;;;5.07;2.83;;;8.50;99.90;;;;;;6215364;23;20595;-91
2022/12/19 11:24:02;;;;;;;2.80;2.00;;;8.50;99.90;;;;;;6215251;23;20212;-91
2022/12/19 11:26:40;;;;;;;3.30;3.00;;;8.50;99.90;;;;;;6218224;23;20138;-91
2022/12/19 11:29:20;;;;;;;1.93;1.83;;;8.50;99.90;;;;;;6215926;23;20627;-90
2022/12/19 11:31:47;;;;;;;2.20;2.10;;;8.50;99.90;;;;;;6215381;23;20197;-90
2022/12/19 11:34:24;;;;;;;2.57;1.97;;;8.50;99.90;;;;;;6190576;23;20220;-91
2022/12/19 11:37:17;;;;;;;5.97;5.23;;;8.60;99.90;;;;;;6190905;23;20195;-90
2022/12/19 11:39:55;;;;;;;4.60;4.20;;;8.60;99.90;;;;;;6215378;23;20559;-90
2022/12/19 11:42:45;;;;;;;3.63;2.90;;;8.60;99.90;;;;;;6215711;23;20643;-90
2022/12/19 11:45:26;;;;;;;1.97;1.83;;;8.70;99.90;;;;;;6215390;23;20242;-90
2022/12/19 11:48:02;;;;;;;2.10;2.00;;;8.70;99.90;;;;;;6215522;23;20576;-90
2022/12/19 11:50:54;;;;;;;3.30;2.13;;;8.70;99.90;;;;;;6216299;23;20145;-90
2022/12/19 11:53:29;;;;;;;3.97;2.47;;;8.70;99.90;;;;;;6216019;23;20166;-91
2022/12/19 11:56:15;;;;;;;4.07;3.00;;;8.70;99.90;;;;;;6215952;23;20185;-91
2022/12/19 11:58:46;;;;;;;3.23;2.77;;;8.80;99.90;;;;;;6215916;23;20205;-89
2022/12/19 12:01:40;;;;;;;10.27;5.27;;;8.70;99.90;;;;;;6191321;23;20210;-91
2022/12/19 12:04:28;;;;;;;4.73;2.27;;;8.70;99.90;;;;;;6215066;23;20263;-90
2022/12/19 12:06:55;;;;;;;2.60;2.40;;;8.80;99.90;;;;;;6215783;23;20272;-90
2022/12/19 12:09:46;;;;;;;3.10;2.90;;;8.80;99.90;;;;;;6215367;23;20190;-90
2022/12/19 12:12:22;;;;;;;2.17;2.07;;;8.80;99.90;;;;;;6215362;23;20265;-90
2022/12/19 12:14:51;;;;;;;3.57;3.27;;;8.80;99.90;;;;;;6215968;23;20146;-90
2022/12/19 12:17:25;;;;;;;2.37;2.27;;;8.80;99.90;;;;;;6215371;23;20601;-90
2022/12/19 12:19:51;;;;;;;9.70;2.90;;;8.80;99.90;;;;;;6214920;23;20220;-90
2022/12/19 12:22:35;;;;;;;3.53;3.07;;;8.90;99.90;;;;;;6214510;23;20209;-90
2022/12/19 12:25:29;;;;;;;3.07;2.70;;;8.80;99.90;;;;;;6215410;23;20274;-93
2022/12/19 12:28:24;;;;;;;2.63;2.40;;;8.80;99.90;;;;;;6214986;23;20527;-89
2022/12/19 12:31:19;;;;;;;2.97;2.57;;;8.90;99.90;;;;;;6211287;23;20217;-90
2022/12/19 12:34:10;;;;;;;3.97;2.63;;;8.90;99.90;;;;;;6214961;23;20190;-90
2022/12/19 12:36:54;;;;;;;1.87;1.77;;;8.90;99.90;;;;;;6214825;23;20264;-91
2022/12/19 12:39:46;;;;;;;3.20;3.00;;;8.90;99.90;;;;;;6215060;23;20321;-90
2022/12/19 12:42:33;;;;;;;3.27;2.53;;;8.90;99.90;;;;;;6215342;23;20217;-92
2022/12/19 12:45:01;;;;;;;2.97;2.67;;;8.90;99.90;;;;;;6217077;23;20134;-89
2022/12/19 12:47:28;;;;;;;3.10;2.53;;;8.90;99.90;;;;;;6193062;23;20237;-90
2022/12/19 12:49:59;;;;;;;2.77;2.57;;;8.90;99.90;;;;;;6191613;23;20218;-90
2022/12/19 12:52:42;;;;;;;1.90;1.60;;;8.90;99.90;;;;;;6216765;23;20252;-90
2022/12/19 12:55:28;;;;;;;1.80;1.57;;;8.90;99.90;;;;;;6216812;23;20197;-90
2022/12/19 12:57:54;;;;;;;1.53;1.30;;;8.90;99.90;;;;;;6216844;23;20198;-90
2022/12/19 13:00:32;;;;;;;1.90;1.80;;;8.90;99.90;;;;;;6166831;23;20205;-90
2022/12/19 13:03:04;;;;;;;7.83;2.87;;;8.90;99.90;;;;;;6216298;23;20146;-90
2022/12/19 13:05:48;;;;;;;5.00;2.63;;;8.90;99.90;;;;;;6217355;23;20671;-90
2022/12/19 13:08:36;;;;;;;1.43;1.33;;;8.90;99.90;;;;;;6216057;23;20197;-90
2022/12/19 13:11:10;;;;;;;2.00;1.80;;;8.80;99.90;;;;;;6216323;23;20503;-90
2022/12/19 13:13:54;;;;;;;3.27;3.07;;;8.90;99.90;;;;;;6216317;23;20216;-90
2022/12/19 13:16:43;;;;;;;3.07;2.67;;;8.80;99.90;;;;;;6216398;23;20273;-90
2022/12/19 13:19:20;;;;;;;2.67;2.40;;;8.90;99.90;;;;;;6196884;23;20190;-90
2022/12/19 13:22:04;;;;;;;3.00;2.43;;;8.80;99.90;;;;;;6215530;23;20263;-90
2022/12/19 13:24:42;;;;;;;5.30;2.60;;;8.80;99.90;;;;;;6216315;23;20202;-90
2022/12/19 13:27:20;;;;;;;1.87;1.77;;;8.80;99.90;;;;;;6216331;23;20153;-89